Time;durP1;ratioP1;P1;durP2;ratioP2;P2;SDS_P1;SDS_P2;PMS_P1;PMS_P2;Temp;Humidity;BMP_temperature;BMP_pressure;BME280_temperature;BME280_humidity;BME280_pressure;Samples;Min_cycle;Max_cycle;Signal;HPM_P1;HPM_P2
2022/12/26 00:01:05;;;;;;;26.95;12.35;;;;;;;6.42;100.00;100318.63;5055410;28;20535;-79
2022/12/26 00:03:30;;;;;;;30.63;13.53;;;;;;;6.40;100.00;100303.31;5038698;28;20028;-78
2022/12/26 00:05:56;;;;;;;26.52;12.50;;;;;;;6.49;100.00;100303.38;5073097;28;20469;-79
2022/12/26 00:08:21;;;;;;;27.98;12.52;;;;;;;6.47;100.00;100303.06;5074517;28;20017;-79
2022/12/26 00:10:47;;;;;;;26.13;13.80;;;;;;;6.49;100.00;100294.84;5077631;28;20485;-78
2022/12/26 00:13:12;;;;;;;22.70;11.32;;;;;;;6.53;100.00;100298.38;5077891;28;20018;-79
2022/12/26 00:15:41;;;;;;;27.48;12.25;;;;;;;6.57;100.00;100296.16;5077098;28;20461;-79
2022/12/26 00:18:07;;;;;;;23.20;12.40;;;;;;;6.55;100.00;100273.13;5077739;28;20092;-80
2022/12/26 00:20:32;;;;;;;23.85;12.13;;;;;;;6.66;100.00;100267.81;5077016;28;20029;-78
2022/12/26 00:22:59;;;;;;;31.10;13.70;;;;;;;6.61;100.00;100272.06;5076841;28;20024;-79
2022/12/26 00:25:24;;;;;;;27.80;12.85;;;;;;;6.53;100.00;100272.81;5077306;28;20102;-79
2022/12/26 00:27:49;;;;;;;30.77;13.43;;;;;;;6.50;100.00;100287.91;5077119;28;20437;-79
2022/12/26 00:30:15;;;;;;;30.45;12.15;;;;;;;6.45;100.00;100282.84;5077151;28;20054;-79
2022/12/26 00:32:40;;;;;;;23.45;12.20;;;;;;;6.45;100.00;100280.81;5077208;28;20013;-78
2022/12/26 00:35:06;;;;;;;31.63;13.43;;;;;;;6.52;100.00;100299.63;5076512;28;20377;-79
2022/12/26 00:37:31;;;;;;;33.88;12.90;;;;;;;6.51;100.00;100281.78;5076779;28;20021;-79
2022/12/26 00:39:57;;;;;;;31.45;12.68;;;;;;;6.55;100.00;100278.81;5058819;28;20085;-78
2022/12/26 00:42:22;;;;;;;28.17;13.30;;;;;;;6.59;100.00;100265.25;5077119;28;20078;-79
2022/12/26 00:44:48;;;;;;;23.08;12.07;;;;;;;6.60;100.00;100244.91;5077269;28;20380;-76
2022/12/26 00:47:13;;;;;;;25.17;12.10;;;;;;;6.62;100.00;100247.31;5090874;28;20032;-78
2022/12/26 00:49:38;;;;;;;31.23;13.18;;;;;;;6.45;100.00;100243.91;5093160;28;20031;-80
2022/12/26 00:52:04;;;;;;;28.63;12.57;;;;;;;6.40;100.00;100247.34;5079231;28;20098;-78
2022/12/26 00:54:29;;;;;;;22.83;11.55;;;;;;;6.34;100.00;100237.84;5079096;28;20055;-78
2022/12/26 00:56:54;;;;;;;26.48;13.40;;;;;;;6.33;100.00;100227.78;5044119;28;20020;-78
2022/12/26 00:59:20;;;;;;;26.42;12.93;;;;;;;6.27;100.00;100243.00;5058642;28;20033;-78
2022/12/26 01:01:45;;;;;;;27.50;13.55;;;;;;;6.28;100.00;100245.38;5076268;28;20024;-79
2022/12/26 01:04:11;;;;;;;31.20;12.27;;;;;;;6.18;100.00;100255.09;5076286;28;20031;-78
2022/12/26 01:06:36;;;;;;;30.73;13.70;;;;;;;6.22;100.00;100250.06;5041621;28;20099;-79
2022/12/26 01:09:01;;;;;;;29.27;13.07;;;;;;;6.17;100.00;100254.31;5058216;28;20412;-79
2022/12/26 01:11:39;;;;;;;26.33;12.02;;;;;;;6.17;100.00;100271.31;5057874;28;20016;-79
2022/12/26 01:14:07;;;;;;;26.38;12.55;;;;;;;6.22;100.00;100284.13;5076567;28;20020;-79
2022/12/26 01:16:32;;;;;;;30.90;12.73;;;;;;;6.22;100.00;100278.44;5075785;28;20096;-78
2022/12/26 01:18:57;;;;;;;28.92;11.98;;;;;;;6.25;100.00;100277.50;5075328;28;20537;-78
2022/12/26 01:21:23;;;;;;;30.35;14.15;;;;;;;6.28;100.00;100273.75;5076380;28;20024;-79
2022/12/26 01:23:48;;;;;;;25.20;13.23;;;;;;;6.29;100.00;100283.81;5076357;28;20066;-79
2022/12/26 01:26:13;;;;;;;24.80;13.38;;;;;;;6.32;100.00;100279.31;5075812;28;20028;-78
2022/12/26 01:28:39;;;;;;;26.42;12.90;;;;;;;6.32;100.00;100262.28;5057929;28;20021;-78
2022/12/26 01:31:05;;;;;;;25.88;13.52;;;;;;;6.27;100.00;100255.16;5075672;28;20029;-79
2022/12/26 01:33:31;;;;;;;30.45;13.23;;;;;;;6.20;100.00;100236.34;5075561;28;20325;-78
2022/12/26 01:35:56;;;;;;;30.50;12.93;;;;;;;6.03;100.00;100214.34;5075890;28;20028;-78
2022/12/26 01:38:22;;;;;;;28.08;12.85;;;;;;;6.17;100.00;100223.09;5057877;28;20118;-78
2022/12/26 01:40:48;;;;;;;32.75;13.88;;;;;;;6.10;100.00;100220.53;5075800;28;20025;-77
2022/12/26 01:43:15;;;;;;;23.85;13.40;;;;;;;6.18;100.00;100233.19;5075333;28;20377;-78
2022/12/26 01:45:42;;;;;;;29.40;13.50;;;;;;;6.16;100.00;100234.91;5057498;28;20504;-78
2022/12/26 01:48:21;;;;;;;26.55;13.82;;;;;;;6.08;100.00;100242.13;5057499;28;20020;-79
2022/12/26 01:50:53;;;;;;;31.52;12.90;;;;;;;6.00;100.00;100230.22;5075262;28;20035;-79
2022/12/26 01:53:23;;;;;;;30.92;12.85;;;;;;;6.04;100.00;100235.78;5075067;28;20044;-79
2022/12/26 01:55:57;;;;;;;29.90;14.15;;;;;;;5.90;100.00;100222.13;5075298;28;20492;-78
2022/12/26 01:58:28;;;;;;;24.75;13.35;;;;;;;5.97;100.00;100228.34;5057229;28;20020;-78
2022/12/26 02:00:54;;;;;;;24.08;12.98;;;;;;;5.97;100.00;100234.00;5057315;28;20032;-78
2022/12/26 02:06:04;;;;;;;27.58;12.98;;;;;;;5.99;100.00;100227.88;5075390;28;20508;-79
2022/12/26 02:08:31;;;;;;;31.38;13.13;;;;;;;5.91;100.00;100241.53;5040420;28;20020;-78
2022/12/26 02:11:00;;;;;;;26.20;13.05;;;;;;;5.91;100.00;100252.06;5074868;28;20024;-78
2022/12/26 02:13:26;;;;;;;32.10;14.23;;;;;;;5.95;100.00;100230.03;5056962;28;20393;-80
2022/12/26 02:15:51;;;;;;;24.33;11.95;;;;;;;6.02;100.00;100222.06;5057060;28;20021;-79
2022/12/26 02:18:17;;;;;;;24.00;12.68;;;;;;;6.09;100.00;100230.28;5056918;28;20028;-79
2022/12/26 02:21:10;;;;;;;25.98;13.52;;;;;;;6.07;100.00;100226.34;5056959;28;20119;-78
2022/12/26 02:24:34;;;;;;;27.63;15.23;;;;;;;6.05;100.00;100223.97;5074979;28;20036;-78
2022/12/26 02:27:23;;;;;;;28.27;13.85;;;;;;;6.02;100.00;100219.22;5023999;28;20083;-79
2022/12/26 02:30:00;;;;;;;26.35;13.10;;;;;;;6.06;100.00;100219.09;5056693;28;20035;-79
2022/12/26 02:32:53;;;;;;;25.20;12.85;;;;;;;6.06;100.00;100222.72;5073727;28;20028;-79
2022/12/26 02:35:54;;;;;;;25.25;13.25;;;;;;;6.06;100.00;100219.09;5074630;28;20036;-78
2022/12/26 02:38:32;;;;;;;29.47;12.43;;;;;;;6.06;100.00;100213.41;5029721;28;20393;-78
2022/12/26 02:41:21;;;;;;;24.40;12.23;;;;;;;6.10;100.00;100199.88;5056438;28;20150;-79
2022/12/26 02:47:09;;;;;;;27.30;12.88;;;;;;;6.10;100.00;100182.84;5059533;28;20536;-78
2022/12/26 03:15:13;;;;;;;20.58;12.38;;;;;;;6.07;100.00;100175.28;5058764;28;20520;-79
2022/12/26 03:17:42;;;;;;;24.42;12.70;;;;;;;6.09;100.00;100176.38;5039276;28;20027;-80
2022/12/26 03:20:11;;;;;;;21.17;11.88;;;;;;;6.11;100.00;100161.75;5056276;28;20024;-79
2022/12/26 03:22:44;;;;;;;23.55;12.65;;;;;;;6.10;100.00;100155.28;5039214;28;20055;-79
2022/12/26 03:28:00;;;;;;;27.95;13.23;;;;;;;6.21;100.00;100157.69;5074050;28;20085;-77
2022/12/26 03:34:16;;;;;;;25.60;12.82;;;;;;;6.16;100.00;100153.44;5058790;28;20043;-78
2022/12/26 03:35:56;;;;;;;22.92;13.00;;;;;;;6.24;100.00;100153.91;5073430;28;20031;-79
2022/12/26 03:38:33;;;;;;;23.02;12.30;;;;;;;6.27;100.00;100153.00;5055812;28;20075;-78
2022/12/26 04:44:17;;;;;;;13.25;7.00;;;;;;;7.46;100.00;100129.19;5058374;28;20118;-78
2022/12/26 04:46:46;;;;;;;13.30;7.45;;;;;;;7.53;100.00;100128.84;5055191;28;20020;-79
2022/12/26 04:52:00;;;;;;;10.27;6.88;;;;;;;7.66;100.00;100128.69;5057988;28;20133;-78
2022/12/26 04:54:26;;;;;;;9.73;5.93;;;;;;;7.72;100.00;100135.28;5074014;28;20025;-79
2022/12/26 04:56:52;;;;;;;10.18;6.70;;;;;;;7.76;100.00;100118.09;5082236;28;20025;-78
2022/12/26 04:59:18;;;;;;;10.60;6.53;;;;;;;7.88;100.00;100119.94;5093847;28;20024;-78
2022/12/26 05:10:00;;;;;;;10.05;6.13;;;;;;;8.04;100.00;100113.88;5066384;28;20043;-77
2022/12/26 05:12:25;;;;;;;11.40;6.50;;;;;;;8.04;100.00;100108.19;5076398;28;20432;-77
2022/12/26 05:14:51;;;;;;;12.10;7.95;;;;;;;8.10;100.00;100103.41;5058380;28;20465;-78
2022/12/26 05:28:42;;;;;;;10.35;6.60;;;;;;;8.11;100.00;100090.78;5075995;28;20039;-79
2022/12/26 05:31:16;;;;;;;12.60;7.03;;;;;;;8.16;100.00;100098.66;5075926;28;20427;-78
2022/12/26 05:36:29;;;;;;;10.20;6.80;;;;;;;8.17;100.00;100097.41;5060903;28;20192;-80
2022/12/26 05:38:55;;;;;;;8.90;6.07;;;;;;;8.15;100.00;100096.28;5058061;28;20035;-78
2022/12/26 05:41:21;;;;;;;14.40;6.72;;;;;;;8.16;100.00;100092.19;5075628;28;20024;-79
2022/12/26 05:43:47;;;;;;;10.45;6.82;;;;;;;8.14;100.00;100089.00;5075870;28;20020;-78
2022/12/26 05:46:12;;;;;;;8.88;5.82;;;;;;;8.12;100.00;100088.69;5075632;28;20025;-79
2022/12/26 05:48:38;;;;;;;11.15;6.43;;;;;;;8.13;100.00;100091.06;5075904;28;20028;-78
2022/12/26 05:51:03;;;;;;;11.80;6.35;;;;;;;8.16;100.00;100095.81;5075482;28;20031;-78
2022/12/26 05:53:30;;;;;;;10.57;7.10;;;;;;;8.17;100.00;100090.91;5075239;28;20045;-78
2022/12/26 05:56:01;;;;;;;13.23;6.70;;;;;;;8.22;100.00;100107.34;5075232;28;20020;-79
2022/12/26 05:58:26;;;;;;;10.35;6.63;;;;;;;8.21;100.00;100100.09;5075821;28;20058;-79
2022/12/26 06:00:52;;;;;;;9.52;6.68;;;;;;;8.27;100.00;100113.16;5075528;28;20025;-79
2022/12/26 06:03:17;;;;;;;11.38;6.15;;;;;;;8.30;100.00;100109.38;5075222;28;20099;-79
2022/12/26 06:05:42;;;;;;;10.10;6.18;;;;;;;8.30;100.00;100109.38;5057258;28;20359;-79
2022/12/26 06:08:08;;;;;;;14.25;6.45;;;;;;;8.36;100.00;100110.25;5040563;28;20115;-79
2022/12/26 06:10:34;;;;;;;10.57;5.75;;;;;;;8.42;100.00;100098.22;5057192;28;20075;-78
2022/12/26 06:13:00;;;;;;;8.15;5.95;;;;;;;8.46;100.00;100099.59;5074927;28;20055;-79
2022/12/26 06:15:26;;;;;;;8.48;6.15;;;;;;;8.50;100.00;100103.09;5075336;28;20028;-79
2022/12/26 06:17:53;;;;;;;8.77;5.80;;;;;;;8.49;100.00;100117.81;5074919;28;20024;-78
2022/12/26 06:20:19;;;;;;;9.60;6.18;;;;;;;8.49;100.00;100124.28;5074775;28;20035;-79
2022/12/26 06:22:45;;;;;;;9.45;5.50;;;;;;;8.46;100.00;100122.38;5074602;28;20078;-78
2022/12/26 06:25:10;;;;;;;10.13;5.90;;;;;;;8.41;100.00;100122.28;5074783;28;20036;-79
2022/12/26 06:27:35;;;;;;;14.23;6.38;;;;;;;8.34;100.00;100112.81;5074950;28;20381;-79
2022/12/26 06:30:01;;;;;;;8.27;5.55;;;;;;;8.27;100.00;100098.94;5056882;28;20149;-79
2022/12/26 06:32:26;;;;;;;12.90;6.30;;;;;;;8.27;100.00;100118.06;5056776;28;20450;-77
2022/12/26 06:34:52;;;;;;;8.93;5.88;;;;;;;8.03;100.00;100089.53;5056645;28;20097;-78
2022/12/26 06:37:17;;;;;;;11.88;5.97;;;;;;;8.27;100.00;100132.28;5039985;28;20039;-78
2022/12/26 06:39:42;;;;;;;10.63;6.47;;;;;;;8.34;100.00;100129.09;5074311;28;20036;-79
2022/12/26 06:42:08;;;;;;;7.80;4.97;;;;;;;8.37;100.00;100133.81;5074438;28;20038;-80
2022/12/26 06:44:34;;;;;;;8.38;5.82;;;;;;;8.45;100.00;100142.81;5074440;28;20074;-78
2022/12/26 06:46:59;;;;;;;8.65;5.20;;;;;;;8.51;100.00;100144.50;5074320;28;20106;-79
2022/12/26 06:49:25;;;;;;;12.85;4.75;;;;;;;8.55;100.00;100127.25;5074207;28;20024;-78
2022/12/26 06:51:51;;;;;;;9.32;5.13;;;;;;;8.60;100.00;100123.75;5056563;28;20068;-79
2022/12/26 06:54:16;;;;;;;10.95;5.90;;;;;;;8.66;100.00;100136.03;5073891;28;20024;-79
2022/12/26 06:56:42;;;;;;;8.90;6.00;;;;;;;8.64;100.00;100130.84;5056338;28;20077;-78
2022/12/26 06:59:10;;;;;;;10.52;6.03;;;;;;;8.62;100.00;100121.19;5074319;28;20035;-79
2022/12/26 07:01:35;;;;;;;8.50;5.57;;;;;;;8.66;100.00;100145.38;5056113;28;20124;-79
2022/12/26 07:04:03;;;;;;;7.68;5.15;;;;;;;8.71;100.00;100141.06;5055958;28;20494;-77
2022/12/26 07:06:36;;;;;;;8.40;5.80;;;;;;;8.73;100.00;100144.22;5073934;28;20032;-78
2022/12/26 07:09:04;;;;;;;11.65;6.30;;;;;;;8.76;100.00;100143.25;5073939;28;20028;-78
2022/12/26 07:11:32;;;;;;;9.27;5.45;;;;;;;8.72;100.00;100154.84;5074276;28;20039;-78
2022/12/26 07:13:57;;;;;;;9.43;5.95;;;;;;;8.73;100.00;100155.63;5074077;28;20035;-80
2022/12/26 07:16:23;;;;;;;9.80;5.20;;;;;;;8.73;100.00;100147.88;5039309;28;20036;-78
2022/12/26 07:18:52;;;;;;;7.68;5.47;;;;;;;8.78;100.00;100150.06;5055455;28;20020;-79
2022/12/26 07:21:17;;;;;;;8.68;5.35;;;;;;;8.80;100.00;100150.34;5073761;28;20028;-77
2022/12/26 07:23:43;;;;;;;7.55;5.35;;;;;;;8.85;100.00;100151.78;5073972;28;20024;-78
2022/12/26 07:26:09;;;;;;;9.13;5.90;;;;;;;8.86;100.00;100143.97;5073851;28;20029;-79
2022/12/26 07:28:34;;;;;;;8.43;5.05;;;;;;;8.82;100.00;100155.56;5073714;28;20024;-79
2022/12/26 07:31:00;;;;;;;8.65;4.72;;;;;;;8.85;100.00;100146.06;5073544;28;20103;-79
2022/12/26 07:33:28;;;;;;;7.03;4.78;;;;;;;8.89;100.00;100140.19;5073595;28;20078;-79
2022/12/26 07:35:58;;;;;;;6.97;4.95;;;;;;;8.89;100.00;100163.78;5055552;28;20032;-79
2022/12/26 07:38:23;;;;;;;9.95;5.43;;;;;;;8.83;100.00;100151.44;5055645;28;20067;-78
2022/12/26 07:40:48;;;;;;;9.38;6.28;;;;;;;8.87;100.00;100152.06;5055485;28;20052;-78
2022/12/26 07:43:14;;;;;;;8.80;5.78;;;;;;;8.91;100.00;100146.97;5073327;28;20039;-78
2022/12/26 07:45:39;;;;;;;8.48;5.43;;;;;;;8.89;100.00;100137.34;5073372;28;20032;-79
2022/12/26 07:48:05;;;;;;;8.75;5.13;;;;;;;8.91;100.00;100132.72;5055949;28;20121;-78
2022/12/26 07:50:30;;;;;;;8.77;4.78;;;;;;;8.89;100.00;100129.56;5055552;28;20042;-78
2022/12/26 07:52:57;;;;;;;9.50;5.18;;;;;;;8.94;100.00;100148.06;5073317;28;20045;-80
2022/12/26 07:55:23;;;;;;;8.38;5.18;;;;;;;8.96;100.00;100149.13;5073314;28;20454;-79
2022/12/26 07:57:50;;;;;;;7.50;5.22;;;;;;;8.99;100.00;100151.03;5055504;28;20123;-80
2022/12/26 08:00:17;;;;;;;9.68;5.32;;;;;;;9.01;100.00;100153.38;5055777;28;20035;-80
2022/12/26 08:02:42;;;;;;;8.13;4.80;;;;;;;9.06;100.00;100149.84;5073138;28;20028;-80
2022/12/26 08:05:08;;;;;;;12.55;5.25;;;;;;;9.09;100.00;100140.34;5055211;28;20034;-81
2022/12/26 08:07:33;;;;;;;8.75;5.88;;;;;;;9.13;100.00;100144.59;5073422;28;20037;-78
2022/12/26 08:09:59;;;;;;;8.85;5.15;;;;;;;9.16;100.00;100149.31;5073344;28;20032;-79
2022/12/26 08:12:25;;;;;;;8.88;5.20;;;;;;;9.24;100.00;100147.69;5073420;28;20420;-79
2022/12/26 08:14:51;;;;;;;9.68;5.63;;;;;;;9.29;100.00;100143.38;5073216;28;20032;-78
2022/12/26 08:17:16;;;;;;;8.35;5.13;;;;;;;9.34;100.00;100141.91;5073460;28;20079;-79
2022/12/26 08:19:42;;;;;;;7.18;5.43;;;;;;;9.33;100.00;100143.16;5073362;28;20074;-78
2022/12/26 08:22:07;;;;;;;9.95;5.18;;;;;;;9.33;100.00;100151.72;5073320;28;20377;-80
2022/12/26 08:24:32;;;;;;;9.02;5.50;;;;;;;9.37;100.00;100146.59;5055798;28;20021;-79
2022/12/26 08:26:58;;;;;;;8.50;5.40;;;;;;;9.38;100.00;100145.34;5073148;28;20390;-79
2022/12/26 08:29:23;;;;;;;8.70;5.25;;;;;;;9.44;100.00;100149.09;5056378;28;20028;-78
2022/12/26 08:31:49;;;;;;;7.47;5.20;;;;;;;9.37;100.00;100141.69;5077291;28;20096;-78
2022/12/26 08:34:14;;;;;;;8.50;5.38;;;;;;;9.41;100.00;100148.00;5077286;28;20025;-79
2022/12/26 08:36:40;;;;;;;10.52;4.85;;;;;;;9.35;100.00;100160.59;5077634;28;20025;-79
2022/12/26 08:39:05;;;;;;;8.25;6.00;;;;;;;9.26;100.00;100155.72;5059355;28;20028;-79
2022/12/26 08:41:31;;;;;;;8.73;5.38;;;;;;;9.10;100.00;100148.41;5077104;28;20029;-79
2022/12/26 08:43:56;;;;;;;9.57;5.80;;;;;;;9.01;100.00;100157.03;5077028;28;20453;-78
2022/12/26 08:46:22;;;;;;;8.10;5.22;;;;;;;8.94;100.00;100160.25;5076504;28;20111;-77
2022/12/26 08:48:48;;;;;;;9.07;5.53;;;;;;;8.85;100.00;100151.78;5058945;28;20051;-79
2022/12/26 08:51:19;;;;;;;9.48;5.65;;;;;;;8.82;100.00;100166.97;5077262;28;20033;-77
2022/12/26 08:53:45;;;;;;;9.40;5.75;;;;;;;8.71;100.00;100167.50;5042170;28;20075;-78
2022/12/26 08:56:13;;;;;;;9.38;5.72;;;;;;;8.70;100.00;100173.69;5076628;28;20020;-79
2022/12/26 08:58:39;;;;;;;9.55;5.63;;;;;;;8.70;100.00;100171.66;5076652;28;20024;-78
2022/12/26 09:01:09;;;;;;;8.02;5.53;;;;;;;8.68;100.00;100174.19;5076435;28;20020;-79
2022/12/26 09:03:35;;;;;;;8.45;6.05;;;;;;;8.67;100.00;100171.81;5058152;28;20366;-78
2022/12/26 09:06:01;;;;;;;10.23;5.47;;;;;;;8.67;100.00;100175.44;5076313;28;20521;-79
2022/12/26 09:08:30;;;;;;;7.93;5.15;;;;;;;8.68;100.00;100179.88;5076174;28;20112;-79
2022/12/26 09:11:01;;;;;;;9.57;5.50;;;;;;;8.68;100.00;100174.19;5041968;28;20025;-80
2022/12/26 09:13:27;;;;;;;7.90;5.05;;;;;;;8.68;100.00;100174.19;5068760;28;20021;-78
2022/12/26 09:15:52;;;;;;;8.85;5.78;;;;;;;8.75;100.00;100184.44;5090653;28;20098;-77
2022/12/26 09:18:17;;;;;;;9.13;6.00;;;;;;;8.90;100.00;100185.28;5083810;28;20080;-77
2022/12/26 09:20:43;;;;;;;8.73;5.53;;;;;;;9.26;100.00;100184.22;5078626;28;20024;-78
2022/12/26 09:23:09;;;;;;;8.98;5.60;;;;;;;9.55;100.00;100178.59;5077288;28;20036;-79
2022/12/26 09:25:35;;;;;;;7.40;5.65;;;;;;;9.85;100.00;100190.88;5076651;28;20028;-78
2022/12/26 09:28:00;;;;;;;9.70;5.47;;;;;;;10.11;100.00;100182.50;5076471;28;20525;-77
2022/12/26 09:30:25;;;;;;;9.23;5.93;;;;;;;10.27;100.00;100179.16;5057948;28;20024;-79
2022/12/26 09:32:52;;;;;;;8.20;5.32;;;;;;;10.40;100.00;100193.13;5076060;28;20017;-79
2022/12/26 09:35:17;;;;;;;7.22;4.82;;;;;;;10.40;100.00;100179.63;5076301;28;20107;-78
2022/12/26 09:37:43;;;;;;;8.77;5.78;;;;;;;10.42;100.00;100182.00;5076150;28;20058;-78
2022/12/26 09:40:19;;;;;;;8.68;6.13;;;;;;;10.47;100.00;100187.81;5075617;28;20029;-79
2022/12/26 09:43:09;;;;;;;8.25;5.22;;;;;;;10.60;100.00;100175.25;5057618;28;20398;-79
2022/12/26 09:45:59;;;;;;;8.77;5.95;;;;;;;10.74;100.00;100192.34;5041234;28;20029;-78
2022/12/26 09:48:34;;;;;;;7.15;5.18;;;;;;;10.74;100.00;100183.00;5058038;28;20028;-77
2022/12/26 09:51:00;;;;;;;8.77;5.93;;;;;;;10.67;100.00;100186.28;5058598;28;20029;-78
2022/12/26 09:53:33;;;;;;;7.75;5.32;;;;;;;10.61;100.00;100185.41;5057812;28;20166;-78
2022/12/26 09:56:03;;;;;;;9.65;5.40;;;;;;;10.56;100.00;100184.03;5041956;28;20024;-78
2022/12/26 09:58:40;;;;;;;10.25;5.90;;;;;;;10.51;100.00;100179.03;5041985;28;20024;-78
2022/12/26 10:01:23;;;;;;;7.32;5.28;;;;;;;10.52;100.00;100195.69;5076318;28;20111;-79
2022/12/26 10:03:51;;;;;;;6.05;4.53;;;;;;;10.55;100.00;100176.75;5076000;28;20458;-78
2022/12/26 10:06:38;;;;;;;7.60;5.18;;;;;;;10.64;100.00;100170.91;5040973;28;20119;-79
2022/12/26 10:09:25;;;;;;;10.38;5.97;;;;;;;10.82;100.00;100159.25;5075359;28;20103;-79
2022/12/26 10:12:02;;;;;;;7.90;5.20;;;;;;;11.07;100.00;100151.25;5075137;28;20531;-80
2022/12/26 10:14:58;;;;;;;7.65;5.00;;;;;;;11.27;100.00;100151.28;5075403;28;20034;-78
2022/12/26 10:17:30;;;;;;;7.75;5.10;;;;;;;11.42;100.00;100149.09;5057271;28;20021;-79
2022/12/26 10:20:14;;;;;;;;;;;;;;;11.53;100.00;100154.94;5075682;28;20043;-78
2022/12/26 10:22:51;;;;;;;6.88;4.40;;;;;;;11.72;100.00;100152.53;5075031;28;20010;-79
2022/12/26 10:25:22;;;;;;;10.13;4.95;;;;;;;11.87;100.00;100138.09;5075261;28;20107;-79
2022/12/26 10:27:49;;;;;;;6.45;4.32;;;;;;;12.07;100.00;100146.63;5057249;28;20036;-79
2022/12/26 10:30:24;;;;;;;7.20;5.03;;;;;;;12.13;100.00;100133.94;5074678;28;20085;-79
2022/12/26 10:32:57;;;;;;;7.05;4.85;;;;;;;12.09;100.00;100116.19;5056684;28;20099;-79
2022/12/26 10:35:29;;;;;;;6.13;4.60;;;;;;;12.24;100.00;100128.31;5074810;28;20362;-78
2022/12/26 10:37:58;;;;;;;6.05;4.38;;;;;;;12.22;100.00;100130.09;5056628;28;20028;-78
2022/12/26 10:40:27;;;;;;;7.85;4.90;;;;;;;12.23;100.00;100132.47;5074682;28;20033;-78
2022/12/26 10:42:58;;;;;;;6.47;4.57;;;;;;;12.20;100.00;100135.56;5056553;28;20052;-79
2022/12/26 10:45:35;;;;;;;7.65;4.35;;;;;;;12.18;100.00;100135.28;5056801;28;20036;-79
2022/12/26 10:48:00;;;;;;;8.32;5.35;;;;;;;12.13;100.00;100128.22;5039746;28;20025;-78
2022/12/26 10:50:31;;;;;;;7.80;5.38;;;;;;;11.99;100.00;100111.16;5056557;28;20024;-79
2022/12/26 10:52:57;;;;;;;6.38;4.45;;;;;;;11.93;100.00;100131.16;5055909;28;20421;-78
2022/12/26 10:55:28;;;;;;;6.43;4.63;;;;;;;11.80;100.00;100131.56;5074500;28;20024;-79
2022/12/26 10:57:53;;;;;;;8.13;5.22;;;;;;;11.62;100.00;100119.66;5074098;28;20048;-78
2022/12/26 11:00:21;;;;;;;6.75;4.70;;;;;;;11.55;100.00;100105.81;5056601;28;20508;-78
2022/12/26 11:03:07;;;;;;;7.43;5.28;;;;;;;11.48;100.00;100117.69;5073698;28;20149;-78
2022/12/26 11:05:37;;;;;;;9.02;5.13;;;;;;;11.40;100.00;100120.22;5073033;28;20111;-79
2022/12/26 11:08:24;;;;;;;7.97;5.15;;;;;;;11.27;100.00;100123.44;5055987;28;20115;-79
2022/12/26 11:11:46;;;;;;;8.60;5.40;;;;;;;11.19;100.00;100118.66;5056430;28;20035;-80
2022/12/26 11:14:37;;;;;;;9.75;6.25;;;;;;;11.01;100.00;100131.16;5073972;28;20039;-80
2022/12/26 11:17:13;;;;;;;6.40;4.53;;;;;;;10.89;100.00;100135.13;5056232;28;20043;-79
2022/12/26 11:19:41;;;;;;;8.05;4.90;;;;;;;10.81;100.00;100131.16;5056079;28;20025;-78
2022/12/26 11:22:26;;;;;;;7.00;4.53;;;;;;;10.78;100.00;100138.63;5073969;28;20109;-78
2022/12/26 11:25:08;;;;;;;8.73;5.03;;;;;;;10.80;100.00;100136.06;5073871;28;20024;-79
2022/12/26 11:27:33;;;;;;;8.13;5.43;;;;;;;10.80;100.00;100126.72;5074014;28;20024;-78
2022/12/26 11:30:17;;;;;;;7.85;5.05;;;;;;;10.87;100.00;100115.66;5073683;28;20032;-79
2022/12/26 11:32:46;;;;;;;8.23;4.75;;;;;;;10.94;100.00;100118.06;5056052;28;20035;-77
2022/12/26 11:35:21;;;;;;;7.32;4.15;;;;;;;11.06;100.00;100123.94;5055695;28;20028;-79
2022/12/26 11:37:50;;;;;;;7.60;4.70;;;;;;;11.11;100.00;100135.47;5056230;28;20029;-79
2022/12/26 11:40:23;;;;;;;6.82;4.45;;;;;;;11.12;100.00;100128.47;5073705;28;20055;-79
2022/12/26 11:42:55;;;;;;;8.27;4.68;;;;;;;11.20;100.00;100115.31;5055660;28;20166;-78
2022/12/26 11:45:26;;;;;;;6.32;4.85;;;;;;;11.26;100.00;100106.78;5073494;28;20040;-78
2022/12/26 11:47:54;;;;;;;9.98;5.00;;;;;;;11.27;100.00;100097.69;5038917;28;20063;-78
2022/12/26 11:50:20;;;;;;;8.23;4.50;;;;;;;11.35;100.00;100089.47;5055518;28;20024;-80
2022/12/26 11:52:55;;;;;;;7.90;4.75;;;;;;;11.40;100.00;100083.00;5038712;28;20056;-78
2022/12/26 11:55:28;;;;;;;10.77;4.20;;;;;;;11.45;100.00;100082.28;5073382;28;20461;-78
2022/12/26 11:58:00;;;;;;;6.38;4.43;;;;;;;11.52;100.00;100081.81;5073646;28;20082;-78
2022/12/26 12:00:27;;;;;;;7.55;4.80;;;;;;;11.57;100.00;100078.22;5038842;28;20025;-80
2022/12/26 12:02:52;;;;;;;10.25;5.25;;;;;;;11.66;100.00;100078.09;5055535;28;20039;-81
2022/12/26 12:05:27;;;;;;;7.88;5.57;;;;;;;11.65;100.00;100070.78;5060023;28;20107;-78
2022/12/26 12:08:04;;;;;;;9.38;5.47;;;;;;;11.69;100.00;100082.00;5077539;28;20035;-78
2022/12/26 12:10:41;;;;;;;6.75;4.32;;;;;;;11.78;100.00;100085.47;5059788;28;20039;-80
2022/12/26 12:13:20;;;;;;;8.98;5.72;;;;;;;11.91;100.00;100085.06;5077419;28;20033;-78
2022/12/26 12:15:51;;;;;;;8.30;5.40;;;;;;;11.92;100.00;100078.03;5059462;28;20082;-79
2022/12/26 12:18:27;;;;;;;8.40;5.78;;;;;;;11.95;100.00;100091.34;5077308;28;20382;-79
2022/12/26 12:21:01;;;;;;;6.75;5.57;;;;;;;12.00;100.00;100087.75;5059409;28;20020;-79
2022/12/26 12:23:59;;;;;;;7.88;5.00;;;;;;;12.00;100.00;100089.81;5076935;28;20035;-79
2022/12/26 12:26:42;;;;;;;6.65;4.85;;;;;;;11.95;100.00;100073.38;5077316;28;20432;-79
2022/12/26 12:29:19;;;;;;;8.50;4.95;;;;;;;11.99;100.00;100076.78;5059411;28;20099;-79
2022/12/26 12:31:55;;;;;;;5.45;3.90;;;;;;;12.01;100.00;100071.34;5076922;28;20036;-78
2022/12/26 12:34:30;;;;;;;7.50;4.80;;;;;;;12.10;100.00;100076.88;5059359;28;20036;-79
2022/12/26 12:36:55;;;;;;;7.10;4.80;;;;;;;12.12;100.00;100071.41;5059415;28;20036;-79
2022/12/26 12:39:32;;;;;;;7.28;4.95;;;;;;;12.09;100.00;100084.69;5077116;28;20381;-79
2022/12/26 12:42:20;;;;;;;6.72;4.50;;;;;;;12.07;100.00;100100.81;5076718;28;20044;-79
2022/12/26 12:45:04;;;;;;;9.60;5.03;;;;;;;12.03;100.00;100097.38;5059034;28;20032;-79
2022/12/26 12:47:35;;;;;;;7.88;4.88;;;;;;;11.93;100.00;100093.94;5077805;28;20036;-80
2022/12/26 12:50:13;;;;;;;7.13;4.38;;;;;;;11.89;100.00;100092.59;5077737;28;20093;-79
2022/12/26 12:52:50;;;;;;;8.00;4.82;;;;;;;11.84;100.00;100088.38;5076450;28;20063;-79
2022/12/26 12:55:22;;;;;;;7.40;4.45;;;;;;;11.88;100.00;100076.69;5076892;28;20036;-78
2022/12/26 12:57:52;;;;;;;8.02;4.90;;;;;;;11.91;100.00;100078.56;5058760;28;20423;-78
2022/12/26 13:00:20;;;;;;;4.95;4.43;;;;;;;12.01;100.00;100077.09;5042094;28;20032;-79
2022/12/26 13:02:58;;;;;;;6.75;5.07;;;;;;;12.01;100.00;100088.53;5058692;28;20032;-78
2022/12/26 13:06:01;;;;;;;7.75;4.70;;;;;;;12.04;100.00;100096.09;5077102;28;20037;-78
2022/12/26 13:08:50;;;;;;;6.93;4.65;;;;;;;12.00;100.00;100087.75;5041973;28;20025;-78
2022/12/26 13:11:19;;;;;;;6.07;4.15;;;;;;;11.94;100.00;100084.06;5058917;28;20032;-79
2022/12/26 13:13:55;;;;;;;6.40;4.65;;;;;;;11.96;100.00;100081.44;5076590;28;20032;-80
2022/12/26 13:16:30;;;;;;;6.05;4.68;;;;;;;11.88;100.00;100082.41;5057577;28;20043;-77
2022/12/26 13:19:05;;;;;;;7.32;4.53;;;;;;;11.86;100.00;100082.16;5058592;28;20033;-78
2022/12/26 13:21:35;;;;;;;5.55;4.13;;;;;;;11.84;100.00;100074.84;5058188;28;20107;-79
2022/12/26 13:24:25;;;;;;;9.77;4.80;;;;;;;11.86;100.00;100085.81;5076113;28;20465;-79
2022/12/26 13:27:09;;;;;;;7.60;5.18;;;;;;;11.86;100.00;100085.81;5043161;28;20020;-78
2022/12/26 13:29:45;;;;;;;12.52;5.30;;;;;;;11.83;100.00;100086.81;5062504;28;20036;-78
2022/12/26 13:32:22;;;;;;;10.68;5.38;;;;;;;11.80;100.00;100087.84;5073380;28;20024;-79
2022/12/26 13:34:50;;;;;;;9.43;5.18;;;;;;;11.75;100.00;100095.06;5072431;28;20028;-79
2022/12/26 13:37:34;;;;;;;7.13;4.82;;;;;;;11.73;100.00;100097.66;5086182;28;20038;-78